createdAt,value
2018-04-29T00:00:48.742Z,13.10
2018-04-29T00:03:17.813Z,13.10
2018-04-29T00:05:45.300Z,13.10
2018-04-29T00:08:12.853Z,13.10
2018-04-29T00:10:40.384Z,13.20
2018-04-29T00:13:07.876Z,13.20
2018-04-29T00:15:35.344Z,13.10
2018-04-29T00:18:03.700Z,12.90
2018-04-29T00:20:32.962Z,12.90
2018-04-29T00:23:00.672Z,12.90
2018-04-29T00:25:28.928Z,12.90
2018-04-29T00:27:56.399Z,12.90
2018-04-29T00:30:23.895Z,12.80
2018-04-29T00:32:51.421Z,12.80
2018-04-29T00:35:19.112Z,12.70
2018-04-29T00:37:46.574Z,12.70
2018-04-29T00:40:14.106Z,12.60
2018-04-29T00:42:41.580Z,12.50
2018-04-29T00:45:09.829Z,12.50
2018-04-29T00:47:37.308Z,12.50
2018-04-29T00:50:05.663Z,12.50
2018-04-29T00:52:34.816Z,12.60
2018-04-29T00:55:02.426Z,12.50
2018-04-29T00:57:30.808Z,12.50
2018-04-29T00:59:59.063Z,12.50
2018-04-29T01:02:28.070Z,12.40
2018-04-29T01:04:56.332Z,12.40
2018-04-29T01:07:24.013Z,12.40
2018-04-29T01:09:51.621Z,12.40
2018-04-29T01:12:19.112Z,12.30
2018-04-29T01:14:46.584Z,12.20
2018-04-29T01:17:14.059Z,12.20
2018-04-29T01:19:42.360Z,12.10
2018-04-29T01:22:09.860Z,12.10
2018-04-29T01:24:37.381Z,12.10
2018-04-29T01:27:04.880Z,12.00
2018-04-29T01:29:32.361Z,11.90
2018-04-29T01:32:00.655Z,11.90
2018-04-29T01:34:28.144Z,11.90
2018-04-29T01:36:55.627Z,11.90
2018-04-29T01:39:23.100Z,11.80
2018-04-29T01:41:51.334Z,11.80
2018-04-29T01:44:18.814Z,11.80
2018-04-29T01:46:47.051Z,11.80
2018-04-29T01:49:14.583Z,11.70
2018-04-29T01:51:42.146Z,11.70
2018-04-29T01:54:09.568Z,11.70
2018-04-29T01:56:37.112Z,11.50
2018-04-29T01:59:04.588Z,11.50
2018-04-29T02:01:32.069Z,11.50
2018-04-29T02:04:00.312Z,11.30
2018-04-29T02:06:27.995Z,11.30
2018-04-29T02:08:56.445Z,11.30
2018-04-29T02:11:23.924Z,11.30
2018-04-29T02:13:51.387Z,11.40
2018-04-29T02:16:19.685Z,11.50
2018-04-29T02:18:47.232Z,11.50
2018-04-29T02:21:15.516Z,11.50
2018-04-29T02:23:43.017Z,11.50
2018-04-29T02:28:45.827Z,11.40
2018-04-29T02:31:13.385Z,11.50
2018-04-29T02:33:40.892Z,11.50
2018-04-29T02:36:08.624Z,11.40
2018-04-29T02:38:36.101Z,11.30
2018-04-29T02:41:03.592Z,11.20
2018-04-29T02:43:31.246Z,11.30
2018-04-29T02:45:58.768Z,11.40
2018-04-29T02:48:27.019Z,11.40
2018-04-29T02:50:54.559Z,11.30
2018-04-29T02:53:22.064Z,11.30
2018-04-29T02:55:50.368Z,11.30
2018-04-29T02:58:17.884Z,11.20
2018-04-29T03:00:46.147Z,11.10
2018-04-29T03:03:13.623Z,11.10
2018-04-29T03:05:41.092Z,10.90
2018-04-29T03:08:09.352Z,10.90
2018-04-29T03:10:36.855Z,10.80
2018-04-29T03:13:04.331Z,10.90
2018-04-29T03:15:31.812Z,11.00
2018-04-29T03:18:00.867Z,10.70
2018-04-29T03:20:28.364Z,10.70
2018-04-29T03:22:55.861Z,10.80
2018-04-29T03:25:24.321Z,10.70
2018-04-29T03:27:51.870Z,10.70
2018-04-29T03:30:19.435Z,10.50
2018-04-29T03:32:47.121Z,10.50
2018-04-29T03:35:14.598Z,10.50
2018-04-29T03:37:42.075Z,10.50
2018-04-29T03:40:09.549Z,10.60
2018-04-29T03:42:37.227Z,10.80
2018-04-29T03:45:04.890Z,10.80
2018-04-29T03:47:32.372Z,10.80
2018-04-29T03:49:59.862Z,10.80
2018-04-29T03:52:27.340Z,10.90
2018-04-29T03:54:54.819Z,10.90
2018-04-29T03:57:34.241Z,10.90
2018-04-29T04:00:12.640Z,10.80
2018-04-29T04:02:52.111Z,10.70
2018-04-29T04:05:19.631Z,10.60
2018-04-29T04:07:48.003Z,10.70
2018-04-29T04:10:15.466Z,10.70
2018-04-29T04:12:43.063Z,10.70
2018-04-29T04:15:10.533Z,10.70
2018-04-29T04:17:38.769Z,10.60
2018-04-29T04:20:06.281Z,10.60
2018-04-29T04:22:34.520Z,10.50
2018-04-29T04:25:02.027Z,10.50
2018-04-29T04:27:29.501Z,10.50
2018-04-29T04:29:57.027Z,10.50
2018-04-29T04:32:24.513Z,10.50
2018-04-29T04:34:52.200Z,10.50
2018-04-29T04:37:19.854Z,10.50
2018-04-29T04:39:47.445Z,10.60
2018-04-29T04:42:15.015Z,10.70
2018-04-29T04:44:43.260Z,10.70
2018-04-29T04:47:10.828Z,10.60
2018-04-29T04:49:38.301Z,10.80
2018-04-29T04:52:06.545Z,10.80
2018-04-29T04:54:34.024Z,10.80
2018-04-29T04:57:01.572Z,10.90
2018-04-29T04:59:29.064Z,10.90
2018-04-29T05:01:56.541Z,11.00
2018-04-29T05:04:24.022Z,11.00
2018-04-29T05:06:51.492Z,11.00
2018-04-29T05:09:18.953Z,11.00
2018-04-29T05:11:46.428Z,11.20
2018-04-29T05:14:14.679Z,11.30
2018-04-29T05:16:42.160Z,11.30
2018-04-29T05:19:09.622Z,11.40
2018-04-29T05:21:37.994Z,11.60
2018-04-29T05:24:05.531Z,11.60
2018-04-29T05:26:33.299Z,11.60
2018-04-29T05:29:00.792Z,11.70
2018-04-29T05:31:29.037Z,11.80
2018-04-29T05:33:56.524Z,11.80
2018-04-29T05:36:24.752Z,11.70
2018-04-29T05:38:52.254Z,11.70
2018-04-29T05:41:20.488Z,11.70
2018-04-29T05:43:48.052Z,11.70
2018-04-29T05:46:15.525Z,11.60
2018-04-29T05:48:42.996Z,11.50
2018-04-29T05:51:11.867Z,11.50
2018-04-29T05:53:39.405Z,11.50
2018-04-29T05:56:06.911Z,11.40
2018-04-29T05:58:35.177Z,11.30
2018-04-29T06:01:02.737Z,11.30
2018-04-29T06:03:30.239Z,11.40
2018-04-29T06:05:57.711Z,11.50
2018-04-29T06:08:25.182Z,11.60
2018-04-29T06:10:52.657Z,11.60
2018-04-29T06:13:20.992Z,11.70
2018-04-29T06:15:48.501Z,11.80
2018-04-29T06:18:16.785Z,11.80
2018-04-29T06:20:45.041Z,11.90
2018-04-29T06:23:12.503Z,11.90
2018-04-29T06:25:40.741Z,12.10
2018-04-29T06:28:08.204Z,12.10
2018-04-29T06:30:36.464Z,12.30
2018-04-29T06:33:03.951Z,12.30
2018-04-29T06:35:31.431Z,12.40
2018-04-29T06:37:58.884Z,12.40
2018-04-29T06:40:27.190Z,12.00
2018-04-29T06:42:54.672Z,12.00
2018-04-29T06:45:22.209Z,11.90
2018-04-29T06:47:49.788Z,12.00
2018-04-29T06:50:17.326Z,12.10
2018-04-29T06:52:44.966Z,12.20
2018-04-29T06:55:12.421Z,12.20
2018-04-29T06:57:40.699Z,12.20
2018-04-29T07:00:09.032Z,12.00
2018-04-29T07:02:37.009Z,12.00
2018-04-29T07:05:04.584Z,11.90
2018-04-29T07:07:32.065Z,11.90
2018-04-29T07:09:59.680Z,11.90
2018-04-29T07:12:27.180Z,11.90
2018-04-29T07:14:55.125Z,12.00
2018-04-29T07:17:22.617Z,12.00
2018-04-29T07:19:50.884Z,11.90
2018-04-29T07:22:19.226Z,12.00
2018-04-29T07:24:46.698Z,12.00
2018-04-29T07:27:15.704Z,12.10
2018-04-29T07:29:44.014Z,12.20
2018-04-29T07:32:11.494Z,12.20
2018-04-29T07:34:38.995Z,12.20
2018-04-29T07:37:07.296Z,12.30
2018-04-29T07:39:35.699Z,12.40
2018-04-29T07:42:03.262Z,12.40
2018-04-29T07:44:30.717Z,12.50
2018-04-29T07:46:58.247Z,12.80
2018-04-29T07:49:25.890Z,13.00
2018-04-29T07:51:54.163Z,13.00
2018-04-29T07:54:22.452Z,13.00
2018-04-29T07:56:50.683Z,12.80
2018-04-29T07:59:18.172Z,12.80
2018-04-29T08:01:46.427Z,12.60
2018-04-29T08:04:13.912Z,12.60
2018-04-29T08:06:42.159Z,12.50
2018-04-29T08:09:09.679Z,12.50
2018-04-29T08:11:37.463Z,12.70
2018-04-29T08:14:04.949Z,12.90
2018-04-29T08:16:34.032Z,13.20
2018-04-29T08:19:02.327Z,13.30
2018-04-29T08:21:29.781Z,13.30
2018-04-29T08:23:57.262Z,13.40
2018-04-29T08:26:24.781Z,13.50
2018-04-29T08:28:52.260Z,13.40
2018-04-29T08:31:20.488Z,13.30
2018-04-29T08:33:47.971Z,13.20
2018-04-29T08:36:16.219Z,13.20
2018-04-29T08:38:43.712Z,13.20
2018-04-29T08:41:12.023Z,13.10
2018-04-29T08:43:39.712Z,13.10
2018-04-29T08:46:07.233Z,13.10
2018-04-29T08:48:35.483Z,13.00
2018-04-29T08:51:02.943Z,13.00
2018-04-29T08:53:30.416Z,12.90
2018-04-29T08:55:58.768Z,13.00
2018-04-29T08:58:26.242Z,13.00
2018-04-29T09:00:53.719Z,13.10
2018-04-29T09:03:21.198Z,13.10
2018-04-29T09:05:48.674Z,13.20
2018-04-29T09:08:16.177Z,13.30
2018-04-29T09:10:43.669Z,13.30
2018-04-29T09:13:11.259Z,13.50
2018-04-29T09:15:38.748Z,13.60
2018-04-29T09:18:07.024Z,13.60
2018-04-29T09:20:35.293Z,13.70
2018-04-29T09:23:03.556Z,13.90
2018-04-29T09:25:31.045Z,13.80
2018-04-29T09:27:59.306Z,14.20
2018-04-29T09:30:26.793Z,14.10
2018-04-29T09:32:54.277Z,14.60
2018-04-29T09:35:21.831Z,14.70
2018-04-29T09:37:49.419Z,14.70
2018-04-29T09:40:16.947Z,14.80
2018-04-29T09:42:44.463Z,14.80
2018-04-29T09:45:12.757Z,15.00
2018-04-29T09:47:40.332Z,15.00
2018-04-29T09:50:07.805Z,14.90
2018-04-29T09:52:35.303Z,14.90
2018-04-29T09:55:02.791Z,14.90
2018-04-29T09:57:30.267Z,15.00
2018-04-29T09:59:57.760Z,15.20
2018-04-29T10:02:26.009Z,15.80
2018-04-29T10:04:53.481Z,15.80
2018-04-29T10:07:21.030Z,16.20
2018-04-29T10:09:48.508Z,16.30
2018-04-29T10:12:16.016Z,16.40
2018-04-29T10:14:43.950Z,16.40
2018-04-29T10:17:12.936Z,16.60
2018-04-29T10:19:40.416Z,16.60
2018-04-29T10:22:08.663Z,16.70
2018-04-29T10:24:36.170Z,16.60
2018-04-29T10:27:04.387Z,16.70
2018-04-29T10:29:31.884Z,16.70
2018-04-29T10:32:00.168Z,16.70
2018-04-29T10:34:28.590Z,16.70
2018-04-29T10:36:56.968Z,16.70
2018-04-29T10:39:24.690Z,16.70
2018-04-29T10:41:53.404Z,16.70
2018-04-29T10:44:27.256Z,16.60
2018-04-29T10:46:57.140Z,16.70
2018-04-29T10:49:26.559Z,16.80
2018-04-29T10:51:55.236Z,16.90
2018-04-29T10:54:24.045Z,16.90
2018-04-29T11:09:51.640Z,16.90
2018-04-29T11:12:19.128Z,17.10
2018-04-29T11:14:46.763Z,17.10
2018-04-29T11:17:14.263Z,17.10
2018-04-29T11:19:41.963Z,17.00
2018-04-29T11:22:09.928Z,17.00
2018-04-29T11:24:38.164Z,16.90
2018-04-29T11:27:05.628Z,17.00
2018-04-29T11:29:33.184Z,16.90
2018-04-29T11:32:00.696Z,16.90
2018-04-29T11:34:28.262Z,17.00
2018-04-29T11:36:55.837Z,17.00
2018-04-29T11:39:23.449Z,17.00
2018-04-29T11:41:51.155Z,17.00
2018-04-29T11:44:18.696Z,17.00
2018-04-29T11:46:46.611Z,17.00
2018-04-29T11:49:14.156Z,17.00
2018-04-29T11:51:42.524Z,17.50
2018-04-29T11:54:10.068Z,17.50
2018-04-29T11:56:37.542Z,17.80
2018-04-29T11:59:10.152Z,18.10
2018-04-29T12:01:38.393Z,18.00
2018-04-29T12:04:11.468Z,17.90
2018-04-29T12:06:39.197Z,17.80
2018-04-29T12:09:07.141Z,18.30
2018-04-29T12:11:34.677Z,19.20
2018-04-29T12:14:03.074Z,19.50
2018-04-29T12:16:30.668Z,19.50
2018-04-29T12:18:58.079Z,19.50
2018-04-29T12:21:25.566Z,19.60
2018-04-29T12:23:53.928Z,20.00
2018-04-29T12:26:21.457Z,20.00
2018-04-29T12:28:49.524Z,20.10
2018-04-29T12:31:17.073Z,20.00
2018-04-29T12:33:44.545Z,19.90
2018-04-29T12:36:12.003Z,20.10
2018-04-29T12:38:39.489Z,20.40
2018-04-29T12:41:07.759Z,20.10
2018-04-29T12:43:35.216Z,20.10
2018-04-29T12:46:02.750Z,19.80
2018-04-29T12:48:30.238Z,19.60
2018-04-29T12:50:57.708Z,19.30
2018-04-29T12:53:25.972Z,19.50
2018-04-29T12:55:54.214Z,19.60
2018-04-29T12:58:21.675Z,19.60
2018-04-29T13:00:49.431Z,19.50
2018-04-29T13:03:16.915Z,19.30
2018-04-29T13:05:44.512Z,19.20
2018-04-29T13:08:12.321Z,19.40
2018-04-29T13:10:39.785Z,19.80
2018-04-29T13:13:07.300Z,20.30
2018-04-29T13:15:35.530Z,20.70
2018-04-29T13:18:03.026Z,20.70
2018-04-29T13:20:30.542Z,20.80
2018-04-29T13:22:58.011Z,21.10
2018-04-29T13:25:25.467Z,21.30
2018-04-29T13:27:52.983Z,21.50
2018-04-29T13:30:20.457Z,21.30
2018-04-29T13:32:48.722Z,21.60
2018-04-29T13:35:16.188Z,21.50
2018-04-29T13:37:43.653Z,21.90
2018-04-29T13:40:11.136Z,22.00
2018-04-29T13:42:38.591Z,22.10
2018-04-29T13:45:06.822Z,22.20
2018-04-29T13:47:34.295Z,22.10
2018-04-29T13:50:01.824Z,21.80
2018-04-29T13:52:29.271Z,22.00
2018-04-29T13:54:56.795Z,22.00
2018-04-29T13:57:25.028Z,22.60
2018-04-29T13:59:53.035Z,22.60
2018-04-29T14:02:21.269Z,22.80
2018-04-29T14:04:48.766Z,22.80
2018-04-29T14:07:17.058Z,22.70
2018-04-29T14:09:44.520Z,22.70
2018-04-29T14:12:12.744Z,22.10
2018-04-29T14:14:40.262Z,22.00
2018-04-29T14:17:08.511Z,21.60
2018-04-29T14:19:36.871Z,21.40
2018-04-29T14:22:04.367Z,21.30
2018-04-29T14:24:31.861Z,21.50
2018-04-29T14:26:59.335Z,21.60
2018-04-29T14:29:26.804Z,21.50
2018-04-29T14:31:55.220Z,21.20
2018-04-29T14:34:22.699Z,21.20
2018-04-29T14:36:50.166Z,21.30
2018-04-29T14:39:17.675Z,21.50
2018-04-29T14:41:45.143Z,21.50
2018-04-29T14:44:13.368Z,21.50
2018-04-29T14:46:40.872Z,21.50
2018-04-29T14:49:09.096Z,21.70
2018-04-29T14:51:36.552Z,21.70
2018-04-29T14:54:04.035Z,21.60
2018-04-29T14:56:31.526Z,21.70
2018-04-29T14:58:59.796Z,21.40
2018-04-29T15:01:28.066Z,21.30
2018-04-29T15:03:56.030Z,21.30
2018-04-29T15:06:24.286Z,21.10
2018-04-29T15:08:51.775Z,21.10
2018-04-29T15:11:19.257Z,20.90
2018-04-29T15:13:46.776Z,20.90
2018-04-29T15:16:14.343Z,20.90
2018-04-29T15:18:53.632Z,20.90
2018-04-29T15:21:21.114Z,20.90
2018-04-29T15:23:48.603Z,21.00
2018-04-29T15:26:16.887Z,21.10
2018-04-29T15:28:44.371Z,21.10
2018-04-29T15:31:11.856Z,21.10
2018-04-29T15:33:39.335Z,21.10
2018-04-29T15:36:07.580Z,20.90
2018-04-29T15:38:35.206Z,20.90
2018-04-29T15:41:02.691Z,20.80
2018-04-29T15:43:30.164Z,20.70
2018-04-29T15:45:58.090Z,20.60
2018-04-29T15:48:25.728Z,20.60
2018-04-29T15:50:53.245Z,20.50
2018-04-29T15:53:20.714Z,20.40
2018-04-29T15:55:48.191Z,20.40
2018-04-29T15:58:16.624Z,20.30
2018-04-29T16:00:44.118Z,20.30
2018-04-29T16:03:12.537Z,20.30
2018-04-29T16:05:40.008Z,20.20
2018-04-29T16:08:07.494Z,20.20
2018-04-29T16:10:34.973Z,20.10
2018-04-29T16:13:03.211Z,20.10
2018-04-29T16:15:30.672Z,20.10
2018-04-29T16:17:58.495Z,20.10
2018-04-29T16:20:26.003Z,20.10
2018-04-29T16:22:53.502Z,20.10
2018-04-29T16:25:21.754Z,20.00
2018-04-29T16:27:49.225Z,20.00
2018-04-29T16:30:17.534Z,20.10
2018-04-29T16:32:45.053Z,20.00
2018-04-29T16:35:12.525Z,20.10
2018-04-29T16:37:40.775Z,20.00
2018-04-29T16:40:08.257Z,20.00
2018-04-29T16:43:19.680Z,20.00
2018-04-29T16:45:47.166Z,19.90
2018-04-29T16:48:14.653Z,19.90
2018-04-29T16:50:42.922Z,19.90
2018-04-29T16:53:11.167Z,19.90
2018-04-29T16:55:38.662Z,19.80
2018-04-29T16:58:06.900Z,19.80
2018-04-29T17:00:34.367Z,19.80
2018-04-29T17:03:01.867Z,19.80
2018-04-29T17:05:29.352Z,19.80
2018-04-29T17:07:57.017Z,19.80
2018-04-29T17:10:24.521Z,19.80
2018-04-29T17:12:52.781Z,19.70
2018-04-29T17:15:20.254Z,19.70
2018-04-29T17:17:48.504Z,19.80
2018-04-29T17:20:15.981Z,19.70
2018-04-29T17:23:42.737Z,19.80
2018-04-29T17:26:11.029Z,19.70
2018-04-29T17:28:38.512Z,19.70
2018-04-29T17:31:06.006Z,19.70
2018-04-29T17:33:33.475Z,19.70
2018-04-29T17:36:02.136Z,19.60
2018-04-29T17:38:29.612Z,19.60
2018-04-29T17:40:57.108Z,19.60
2018-04-29T17:43:24.663Z,19.60
2018-04-29T17:45:52.189Z,19.60
2018-04-29T17:48:20.496Z,19.60
2018-04-29T17:50:48.751Z,19.60
2018-04-29T17:53:17.013Z,19.60
2018-04-29T17:55:44.501Z,19.50
2018-04-29T17:58:12.003Z,19.50
2018-04-29T18:00:39.484Z,19.50
2018-04-29T18:03:06.944Z,19.40
2018-04-29T18:05:34.415Z,19.40
2018-04-29T18:08:03.048Z,19.40
2018-04-29T18:10:30.580Z,19.40
2018-04-29T18:12:58.060Z,19.30
2018-04-29T18:15:25.539Z,19.30
2018-04-29T18:17:53.017Z,19.10
2018-04-29T18:20:20.515Z,19.10
2018-04-29T18:22:48.024Z,19.00
2018-04-29T18:25:15.512Z,18.90
2018-04-29T18:27:43.086Z,18.80
2018-04-29T18:30:10.508Z,18.80
2018-04-29T18:32:37.998Z,18.70
2018-04-29T18:35:06.237Z,18.60
2018-04-29T18:37:33.747Z,18.60
2018-04-29T18:40:01.243Z,18.50
2018-04-29T18:42:30.243Z,18.30
2018-04-29T18:44:57.707Z,18.30
2018-04-29T18:47:25.969Z,18.20
2018-04-29T18:49:53.424Z,18.20
2018-04-29T18:52:20.947Z,18.30
2018-04-29T18:54:48.420Z,18.30
2018-04-29T18:57:15.897Z,18.40
2018-04-29T18:59:43.373Z,18.50
2018-04-29T19:02:11.617Z,18.50
2018-04-29T19:04:39.112Z,18.50
2018-04-29T19:07:07.365Z,18.60
2018-04-29T19:09:34.859Z,18.60
2018-04-29T19:12:03.099Z,18.70
2018-04-29T19:14:30.590Z,18.70
2018-04-29T19:16:58.823Z,18.60
2018-04-29T19:19:26.329Z,18.60
2018-04-29T19:21:53.789Z,18.70
2018-04-29T19:24:22.336Z,18.70
2018-04-29T19:26:49.817Z,18.60
2018-04-29T19:29:18.176Z,18.60
2018-04-29T19:31:45.660Z,18.60
2018-04-29T19:34:13.157Z,18.60
2018-04-29T19:36:40.641Z,18.60
2018-04-29T19:39:08.116Z,18.60
2018-04-29T19:41:36.372Z,18.70
2018-04-29T19:44:03.868Z,18.60
2018-04-29T19:46:31.349Z,18.60
2018-04-29T19:48:58.825Z,18.60
2018-04-29T19:51:26.298Z,18.60
2018-04-29T19:53:53.762Z,18.50
2018-04-29T19:56:21.224Z,18.50
2018-04-29T19:58:49.512Z,18.40
2018-04-29T20:01:17.775Z,18.30
2018-04-29T20:03:45.253Z,18.30
2018-04-29T20:06:12.732Z,18.30
2018-04-29T20:08:40.191Z,18.30
2018-04-29T20:11:07.857Z,18.30
2018-04-29T20:13:35.325Z,18.30
2018-04-29T20:16:02.807Z,18.30
2018-04-29T20:18:30.313Z,18.30
2018-04-29T20:20:58.555Z,18.30
2018-04-29T20:23:26.120Z,18.30
2018-04-29T20:25:53.643Z,18.40
2018-04-29T20:28:21.114Z,18.40
2018-04-29T20:30:48.616Z,18.30
2018-04-29T20:33:16.096Z,18.30
2018-04-29T20:35:43.558Z,18.20
2018-04-29T20:38:11.034Z,18.20
2018-04-29T20:40:38.506Z,18.20
2018-04-29T20:43:06.038Z,18.20
2018-04-29T20:45:33.512Z,18.20
2018-04-29T20:48:00.993Z,18.30
2018-04-29T20:50:29.247Z,18.30
2018-04-29T20:52:56.742Z,18.30
2018-04-29T20:55:24.966Z,18.30
2018-04-29T20:57:52.454Z,18.30
2018-04-29T21:00:20.698Z,18.20
2018-04-29T21:02:48.175Z,18.20
2018-04-29T21:05:16.415Z,18.10
2018-04-29T21:07:43.896Z,18.10
2018-04-29T21:10:11.686Z,18.10
2018-04-29T21:12:40.012Z,18.00
2018-04-29T21:15:07.469Z,18.00
2018-04-29T21:17:34.983Z,17.90
2018-04-29T21:20:02.427Z,17.90
2018-04-29T21:22:29.950Z,18.00
2018-04-29T21:24:58.159Z,17.90
2018-04-29T21:27:25.837Z,17.90
2018-04-29T21:29:54.063Z,17.90
2018-04-29T21:32:21.555Z,17.90
2018-04-29T21:34:49.031Z,18.00
2018-04-29T21:37:17.260Z,17.90
2018-04-29T21:39:44.727Z,18.00
2018-04-29T21:42:12.299Z,17.90
2018-04-29T21:44:39.788Z,18.00
2018-04-29T21:47:07.252Z,17.90
2018-04-29T21:49:34.750Z,17.80
2018-04-29T21:52:02.229Z,17.80
2018-04-29T21:54:29.699Z,17.80
2018-04-29T21:56:57.928Z,17.90
2018-04-29T21:59:25.434Z,17.90
2018-04-29T22:01:53.676Z,17.80
2018-04-29T22:04:21.234Z,17.80
2018-04-29T22:06:49.396Z,17.70
2018-04-29T22:09:16.885Z,17.70
2018-04-29T22:11:44.347Z,17.40
2018-04-29T22:14:12.136Z,17.10
2018-04-29T22:16:40.369Z,16.70
2018-04-29T22:19:07.852Z,16.70
2018-04-29T22:21:36.095Z,16.60
2018-04-29T22:24:03.590Z,16.60
2018-04-29T22:26:31.823Z,16.50
2018-04-29T22:28:59.310Z,16.50
2018-04-29T22:31:26.783Z,16.60
2018-04-29T22:33:55.015Z,16.50
2018-04-29T22:36:22.488Z,16.50
2018-04-29T22:38:50.051Z,16.40
2018-04-29T22:41:17.553Z,16.30
2018-04-29T22:43:45.033Z,16.30
2018-04-29T22:46:12.719Z,16.00
2018-04-29T22:48:40.960Z,16.00
2018-04-29T22:51:08.428Z,16.00
2018-04-29T22:53:35.908Z,16.00
2018-04-29T22:56:03.376Z,16.00
2018-04-29T22:58:30.857Z,15.90
2018-04-29T23:00:59.107Z,15.80
2018-04-29T23:03:26.606Z,15.80
2018-04-29T23:05:54.087Z,15.70
2018-04-29T23:08:21.552Z,15.70
2018-04-29T23:10:49.033Z,15.50
2018-04-29T23:13:16.825Z,15.40
2018-04-29T23:15:45.048Z,15.50
2018-04-29T23:18:12.524Z,15.50
2018-04-29T23:20:39.984Z,15.40
2018-04-29T23:23:07.471Z,15.40
2018-04-29T23:25:35.696Z,15.30
2018-04-29T23:28:03.190Z,15.30
2018-04-29T23:30:31.424Z,15.00
2018-04-29T23:32:58.911Z,15.00
2018-04-29T23:35:26.415Z,14.70
2018-04-29T23:37:53.896Z,14.70
2018-04-29T23:40:21.394Z,14.60
2018-04-29T23:42:48.879Z,14.60
2018-04-29T23:45:16.620Z,14.60
2018-04-29T23:47:44.169Z,14.70
2018-04-29T23:50:12.336Z,14.70
2018-04-29T23:52:41.307Z,14.70
2018-04-29T23:55:08.786Z,14.60
2018-04-29T23:57:36.251Z,14.60
